createdAt,value
2017-10-26T00:01:09.742Z,16.37
2017-10-26T00:03:36.170Z,16.33
2017-10-26T00:06:02.582Z,15.50
2017-10-26T00:08:28.958Z,16.30
2017-10-26T00:10:55.401Z,16.60
2017-10-26T00:13:22.309Z,16.73
2017-10-26T00:15:48.945Z,14.53
2017-10-26T00:18:15.306Z,15.20
2017-10-26T00:20:41.709Z,15.80
2017-10-26T00:23:08.070Z,14.17
2017-10-26T00:25:34.504Z,15.77
2017-10-26T00:28:00.823Z,14.60
2017-10-26T00:30:27.353Z,13.20
2017-10-26T00:32:53.836Z,12.73
2017-10-26T00:35:20.223Z,12.53
2017-10-26T00:37:46.711Z,11.93
2017-10-26T00:40:13.142Z,11.07
2017-10-26T00:42:39.623Z,10.07
2017-10-26T00:45:07.153Z,13.10
2017-10-26T00:47:33.450Z,12.50
2017-10-26T00:49:59.841Z,12.60
2017-10-26T00:52:26.282Z,13.33
2017-10-26T00:54:52.659Z,13.33
2017-10-26T00:57:19.042Z,14.37
2017-10-26T00:59:45.479Z,13.97
2017-10-26T01:02:12.138Z,14.47
2017-10-26T01:04:38.478Z,14.37
2017-10-26T01:07:05.692Z,14.73
2017-10-26T01:09:32.088Z,14.50
2017-10-26T01:11:58.446Z,13.70
2017-10-26T01:14:24.823Z,15.07
2017-10-26T01:16:52.021Z,14.60
2017-10-26T01:19:18.491Z,15.27
2017-10-26T01:21:44.925Z,14.83
2017-10-26T01:24:11.373Z,15.60
2017-10-26T01:26:38.584Z,15.80
2017-10-26T01:29:04.892Z,16.37
2017-10-26T01:31:31.253Z,15.17
2017-10-26T01:33:57.638Z,13.97
2017-10-26T01:36:24.089Z,13.43
2017-10-26T01:38:50.554Z,13.27
2017-10-26T01:41:16.995Z,12.67
2017-10-26T01:43:43.362Z,14.00
2017-10-26T01:46:09.764Z,14.20
2017-10-26T01:48:36.081Z,14.07
2017-10-26T01:51:02.500Z,14.53
2017-10-26T01:53:28.991Z,14.27
2017-10-26T01:55:56.141Z,15.70
2017-10-26T01:58:23.324Z,14.60
2017-10-26T02:00:49.728Z,14.40
2017-10-26T02:03:16.096Z,16.30
2017-10-26T02:05:42.525Z,17.90
2017-10-26T02:08:08.918Z,17.00
2017-10-26T02:10:35.235Z,17.40
2017-10-26T02:13:01.695Z,16.03
2017-10-26T02:15:28.748Z,17.50
2017-10-26T02:17:55.135Z,20.27
2017-10-26T02:20:21.482Z,18.03
2017-10-26T02:22:47.910Z,17.40
2017-10-26T02:25:14.398Z,17.00
2017-10-26T02:27:40.733Z,17.50
2017-10-26T02:30:25.936Z,19.27
2017-10-26T02:32:52.300Z,18.73
2017-10-26T02:35:18.696Z,16.70
2017-10-26T02:37:45.140Z,16.50
2017-10-26T02:40:11.503Z,16.80
2017-10-26T02:42:38.686Z,18.37
2017-10-26T02:45:05.058Z,16.83
2017-10-26T02:47:31.456Z,17.13
2017-10-26T02:49:57.902Z,18.27
2017-10-26T02:52:24.356Z,17.40
2017-10-26T02:54:50.780Z,19.73
2017-10-26T02:57:17.221Z,17.50
2017-10-26T02:59:43.590Z,17.37
2017-10-26T03:02:11.150Z,18.90
2017-10-26T03:04:38.355Z,19.40
2017-10-26T03:07:04.932Z,17.23
2017-10-26T03:09:31.302Z,18.67
2017-10-26T03:11:57.645Z,19.50
2017-10-26T03:14:24.031Z,20.50
2017-10-26T03:16:51.150Z,18.53
2017-10-26T03:19:17.596Z,20.30
2017-10-26T03:21:43.994Z,20.00
2017-10-26T03:24:10.522Z,20.50
2017-10-26T03:26:36.915Z,19.03
2017-10-26T03:29:03.340Z,20.53
2017-10-26T03:31:29.850Z,21.93
2017-10-26T03:33:56.510Z,21.07
2017-10-26T03:36:23.056Z,20.93
2017-10-26T03:38:50.580Z,21.10
2017-10-26T03:41:17.044Z,19.60
2017-10-26T03:43:43.562Z,24.03
2017-10-26T03:46:10.173Z,19.73
2017-10-26T03:48:36.620Z,22.20
2017-10-26T03:51:03.067Z,22.77
2017-10-26T03:53:29.507Z,22.20
2017-10-26T03:55:55.867Z,22.30
2017-10-26T03:58:22.982Z,21.00
2017-10-26T04:00:49.551Z,22.77
2017-10-26T04:03:16.736Z,21.90
2017-10-26T04:05:43.208Z,22.00
2017-10-26T04:08:09.649Z,22.10
2017-10-26T04:10:36.034Z,22.80
2017-10-26T04:13:02.401Z,22.83
2017-10-26T04:15:28.782Z,22.40
2017-10-26T04:17:55.267Z,23.37
2017-10-26T04:20:22.058Z,23.97
2017-10-26T04:22:48.601Z,22.67
2017-10-26T04:25:15.450Z,22.70
2017-10-26T04:27:41.876Z,21.57
2017-10-26T04:30:08.358Z,23.53
2017-10-26T04:32:34.795Z,22.87
2017-10-26T04:35:01.263Z,22.67
2017-10-26T04:37:28.449Z,22.50
2017-10-26T04:39:55.003Z,23.30
2017-10-26T04:42:21.644Z,24.67
2017-10-26T04:44:47.985Z,25.33
2017-10-26T04:47:14.423Z,24.80
2017-10-26T04:49:40.792Z,23.50
2017-10-26T04:52:07.920Z,25.63
2017-10-26T04:54:34.369Z,23.73
2017-10-26T04:57:08.375Z,25.33
2017-10-26T04:59:35.526Z,26.00
2017-10-26T05:02:02.640Z,23.27
2017-10-26T05:04:28.999Z,25.40
2017-10-26T05:06:55.452Z,23.90
2017-10-26T05:09:22.614Z,22.80
2017-10-26T05:11:49.694Z,24.63
2017-10-26T05:14:16.094Z,24.40
2017-10-26T05:16:42.407Z,26.47
2017-10-26T05:19:09.521Z,25.30
2017-10-26T05:21:36.660Z,25.90
2017-10-26T05:24:03.078Z,24.60
2017-10-26T05:26:29.573Z,24.83
2017-10-26T05:28:55.970Z,26.50
2017-10-26T05:31:22.384Z,28.53
2017-10-26T05:33:48.889Z,27.40
2017-10-26T05:36:15.296Z,24.73
2017-10-26T05:38:41.787Z,25.87
2017-10-26T05:41:08.309Z,25.73
2017-10-26T05:43:34.724Z,25.40
2017-10-26T05:46:01.096Z,24.40
2017-10-26T05:48:27.521Z,25.33
2017-10-26T05:50:53.924Z,26.63
2017-10-26T05:53:20.285Z,26.73
2017-10-26T05:55:46.681Z,24.77
2017-10-26T05:58:13.837Z,24.37
2017-10-26T06:00:40.986Z,25.60
2017-10-26T06:03:07.367Z,25.50
2017-10-26T06:05:33.752Z,25.03
2017-10-26T06:08:00.934Z,25.40
2017-10-26T06:10:27.356Z,25.13
2017-10-26T06:12:53.782Z,23.70
2017-10-26T06:15:20.114Z,24.53
2017-10-26T06:17:46.747Z,24.13
2017-10-26T06:20:13.290Z,23.47
2017-10-26T06:22:39.643Z,25.60
2017-10-26T06:25:06.139Z,24.23
2017-10-26T06:27:32.638Z,26.20
2017-10-26T06:29:59.037Z,24.40
2017-10-26T06:32:25.302Z,24.87
2017-10-26T06:34:51.690Z,23.23
2017-10-26T06:37:18.045Z,27.17
2017-10-26T06:39:44.557Z,24.57
2017-10-26T06:42:11.058Z,24.20
2017-10-26T06:44:37.494Z,25.00
2017-10-26T06:47:03.825Z,24.20
2017-10-26T06:49:30.195Z,24.37
2017-10-26T06:51:56.607Z,25.80
2017-10-26T06:54:23.781Z,24.27
2017-10-26T06:56:50.225Z,24.50
2017-10-26T06:59:16.664Z,24.50
2017-10-26T07:01:43.114Z,24.63
2017-10-26T07:04:09.543Z,24.77
2017-10-26T07:06:35.978Z,23.83
2017-10-26T07:09:02.389Z,24.20
2017-10-26T07:11:28.795Z,23.03
2017-10-26T07:13:55.882Z,24.07
2017-10-26T07:16:22.265Z,21.87
2017-10-26T07:18:48.680Z,21.57
2017-10-26T07:21:15.077Z,22.53
2017-10-26T07:23:41.449Z,23.10
2017-10-26T07:26:08.862Z,23.30
2017-10-26T07:28:35.195Z,22.50
2017-10-26T07:31:01.566Z,24.30
2017-10-26T07:33:27.908Z,22.33
2017-10-26T07:35:55.130Z,22.53
2017-10-26T07:38:21.714Z,23.57
2017-10-26T07:40:48.228Z,22.27
2017-10-26T07:43:15.337Z,22.40
2017-10-26T07:45:48.770Z,22.10
2017-10-26T07:48:15.090Z,23.30
2017-10-26T07:50:41.530Z,22.00
2017-10-26T07:53:07.916Z,21.60
2017-10-26T07:55:34.406Z,21.57
2017-10-26T07:58:01.177Z,22.40
2017-10-26T08:00:27.961Z,21.13
2017-10-26T08:02:54.419Z,20.03
2017-10-26T08:05:21.419Z,20.80
2017-10-26T08:07:48.033Z,21.10
2017-10-26T08:10:15.249Z,21.27
2017-10-26T08:12:41.792Z,18.83
2017-10-26T08:15:08.304Z,20.70
2017-10-26T08:17:34.589Z,18.50
2017-10-26T08:20:01.669Z,17.97
2017-10-26T08:22:28.070Z,20.17
2017-10-26T08:24:55.143Z,19.60
2017-10-26T08:27:21.725Z,18.87
2017-10-26T08:29:48.128Z,20.27
2017-10-26T08:32:14.536Z,18.80
2017-10-26T08:34:40.891Z,18.00
2017-10-26T08:37:07.281Z,20.17
2017-10-26T08:39:34.414Z,17.97
2017-10-26T08:42:00.864Z,19.03
2017-10-26T08:44:28.146Z,18.90
2017-10-26T08:46:54.438Z,20.00
2017-10-26T08:49:20.724Z,19.63
2017-10-26T08:51:47.278Z,18.30
2017-10-26T08:54:13.674Z,19.70
2017-10-26T08:56:40.021Z,20.30
2017-10-26T08:59:06.440Z,19.77
2017-10-26T09:01:32.736Z,21.00
2017-10-26T09:03:59.995Z,19.00
2017-10-26T09:06:27.236Z,18.73
2017-10-26T09:08:54.367Z,19.40
2017-10-26T09:11:21.111Z,21.33
2017-10-26T09:13:47.741Z,20.43
2017-10-26T09:16:14.072Z,19.73
2017-10-26T09:18:40.519Z,17.97
2017-10-26T09:21:07.024Z,17.63
2017-10-26T09:23:33.677Z,14.63
2017-10-26T09:26:00.023Z,16.40
2017-10-26T09:28:26.421Z,15.07
2017-10-26T09:30:52.842Z,16.77
2017-10-26T09:33:25.353Z,16.67
2017-10-26T09:35:51.816Z,15.90
2017-10-26T09:38:18.964Z,13.93
2017-10-26T09:40:45.389Z,14.83
2017-10-26T09:43:11.828Z,14.47
2017-10-26T09:45:38.158Z,14.70
2017-10-26T09:48:04.785Z,13.33
2017-10-26T09:50:31.270Z,14.60
2017-10-26T09:52:57.607Z,14.97
2017-10-26T09:55:24.089Z,12.67
2017-10-26T09:57:50.421Z,13.43
2017-10-26T10:00:16.810Z,12.37
2017-10-26T10:02:43.104Z,14.00
2017-10-26T10:05:10.562Z,13.73
2017-10-26T10:07:37.816Z,14.20
2017-10-26T10:10:04.247Z,14.17
2017-10-26T10:12:31.384Z,12.33
2017-10-26T10:14:57.731Z,11.67
2017-10-26T10:17:24.891Z,10.30
2017-10-26T10:19:51.278Z,11.13
2017-10-26T10:22:17.715Z,11.07
2017-10-26T10:24:44.043Z,11.13
2017-10-26T10:27:10.534Z,12.53
2017-10-26T10:29:36.934Z,11.93
2017-10-26T10:32:03.374Z,12.33
2017-10-26T10:34:30.500Z,12.20
2017-10-26T10:36:57.037Z,9.10
2017-10-26T10:39:23.464Z,7.80
2017-10-26T10:41:49.833Z,7.23
2017-10-26T10:44:16.227Z,8.40
2017-10-26T10:46:42.549Z,7.90
2017-10-26T10:49:08.887Z,7.47
2017-10-26T10:51:35.258Z,6.40
2017-10-26T10:54:02.407Z,8.27
2017-10-26T10:56:29.526Z,9.90
2017-10-26T11:01:52.766Z,9.50
2017-10-26T11:04:19.138Z,10.63
2017-10-26T11:06:45.599Z,11.27
2017-10-26T11:09:12.727Z,11.13
2017-10-26T11:11:39.076Z,10.93
2017-10-26T11:14:06.225Z,12.17
2017-10-26T11:16:33.391Z,12.87
2017-10-26T11:19:00.508Z,13.13
2017-10-26T11:21:26.845Z,12.57
2017-10-26T11:23:53.172Z,12.67
2017-10-26T11:26:19.601Z,13.23
2017-10-26T11:28:46.106Z,13.40
2017-10-26T11:31:12.467Z,13.00
2017-10-26T11:33:38.809Z,14.77
2017-10-26T11:36:05.161Z,13.63
2017-10-26T11:38:32.488Z,14.87
2017-10-26T11:40:58.856Z,12.90
2017-10-26T11:43:25.155Z,15.33
2017-10-26T11:45:51.550Z,14.40
2017-10-26T11:48:17.961Z,14.13
2017-10-26T11:50:44.361Z,13.40
2017-10-26T11:53:10.892Z,12.17
2017-10-26T11:55:37.264Z,14.17
2017-10-26T11:58:04.505Z,13.03
2017-10-26T12:00:31.012Z,13.50
2017-10-26T12:02:57.340Z,13.07
2017-10-26T12:05:23.890Z,12.53
2017-10-26T12:07:50.349Z,14.30
2017-10-26T12:10:17.518Z,14.63
2017-10-26T12:12:43.923Z,14.40
2017-10-26T12:15:11.112Z,14.40
2017-10-26T12:17:37.477Z,15.27
2017-10-26T12:20:03.989Z,13.67
2017-10-26T12:22:30.366Z,13.77
2017-10-26T12:24:57.524Z,15.70
2017-10-26T12:27:23.868Z,16.43
2017-10-26T12:29:50.230Z,13.90
2017-10-26T12:32:16.620Z,14.60
2017-10-26T12:34:42.994Z,11.90
2017-10-26T12:37:09.379Z,13.00
2017-10-26T12:39:36.542Z,12.40
2017-10-26T12:42:03.216Z,11.83
2017-10-26T12:44:29.606Z,11.73
2017-10-26T12:46:56.750Z,12.10
2017-10-26T12:49:24.042Z,11.27
2017-10-26T12:51:50.485Z,11.40
2017-10-26T12:54:16.895Z,10.83
2017-10-26T12:56:43.372Z,12.50
2017-10-26T12:59:09.934Z,11.70
2017-10-26T13:01:36.323Z,15.20
2017-10-26T13:04:02.741Z,13.83
2017-10-26T13:06:29.081Z,14.50
2017-10-26T13:08:55.458Z,12.93
2017-10-26T13:11:21.877Z,15.30
2017-10-26T13:13:49.709Z,12.40
2017-10-26T13:16:16.102Z,12.37
2017-10-26T13:18:43.545Z,12.80
2017-10-26T13:21:09.924Z,15.00
2017-10-26T13:23:36.502Z,14.67
2017-10-26T13:26:02.852Z,13.20
2017-10-26T13:28:29.285Z,13.47
2017-10-26T13:30:55.700Z,13.90
2017-10-26T13:33:22.144Z,13.60
2017-10-26T13:35:49.269Z,12.87
2017-10-26T13:38:15.664Z,14.30
2017-10-26T13:40:42.225Z,13.30
2017-10-26T13:43:08.669Z,13.20
2017-10-26T13:45:35.072Z,13.90
2017-10-26T13:48:01.511Z,11.90
2017-10-26T13:50:27.920Z,12.10
2017-10-26T13:52:55.033Z,12.57
2017-10-26T13:55:21.472Z,12.87
2017-10-26T13:57:47.852Z,12.03
2017-10-26T14:00:14.287Z,13.20
2017-10-26T14:02:40.868Z,11.70
2017-10-26T14:05:07.300Z,13.07
2017-10-26T14:07:33.734Z,14.23
2017-10-26T14:10:00.221Z,13.70
2017-10-26T14:12:26.604Z,14.53
2017-10-26T14:14:52.983Z,13.67
2017-10-26T14:17:19.358Z,11.87
2017-10-26T14:19:45.758Z,12.73
2017-10-26T14:22:12.301Z,12.97
2017-10-26T14:24:38.787Z,11.47
2017-10-26T14:27:05.258Z,13.00
2017-10-26T14:29:31.703Z,13.90
2017-10-26T14:31:58.096Z,14.50
2017-10-26T14:34:24.549Z,13.57
2017-10-26T14:36:51.003Z,14.00
2017-10-26T14:39:17.397Z,14.20
2017-10-26T14:41:43.782Z,12.87
2017-10-26T14:44:10.337Z,13.60
2017-10-26T14:46:36.750Z,13.13
2017-10-26T14:49:03.175Z,14.60
2017-10-26T14:51:30.016Z,12.73
2017-10-26T14:53:56.838Z,13.10
2017-10-26T14:56:23.492Z,14.03
2017-10-26T14:58:50.158Z,13.40
2017-10-26T15:01:17.009Z,13.63
2017-10-26T15:03:43.598Z,13.60
2017-10-26T15:06:11.212Z,14.20
2017-10-26T15:08:38.552Z,12.93
2017-10-26T15:11:04.995Z,12.87
2017-10-26T15:13:31.635Z,14.43
2017-10-26T15:15:58.334Z,13.03
2017-10-26T15:18:25.013Z,14.97
2017-10-26T15:20:51.571Z,13.77
2017-10-26T15:23:18.799Z,13.47
2017-10-26T15:25:45.191Z,14.27
2017-10-26T15:28:12.411Z,14.97
2017-10-26T15:30:39.753Z,14.63
2017-10-26T15:33:06.220Z,15.43
2017-10-26T15:35:33.538Z,16.00
2017-10-26T15:37:59.879Z,15.40
2017-10-26T15:40:27.095Z,15.77
2017-10-26T15:42:53.538Z,15.10
2017-10-26T15:45:20.211Z,15.90
2017-10-26T15:47:46.752Z,16.23
2017-10-26T15:50:13.293Z,15.17
2017-10-26T15:52:40.496Z,14.57
2017-10-26T15:55:07.148Z,14.80
2017-10-26T15:57:33.658Z,16.13
2017-10-26T16:00:00.117Z,14.70
2017-10-26T16:02:26.551Z,16.43
2017-10-26T16:04:52.957Z,15.50
2017-10-26T16:07:19.390Z,16.37
2017-10-26T16:09:45.923Z,16.40
2017-10-26T16:12:12.441Z,15.70
2017-10-26T16:14:38.876Z,16.37
2017-10-26T16:17:05.971Z,16.80
2017-10-26T16:19:33.480Z,17.30
2017-10-26T16:21:59.924Z,16.97
2017-10-26T16:24:26.384Z,16.30
2017-10-26T16:26:52.871Z,18.13
2017-10-26T16:29:20.157Z,17.70
2017-10-26T16:31:46.818Z,16.53
2017-10-26T16:34:13.169Z,18.00
2017-10-26T16:36:39.634Z,19.23
2017-10-26T16:39:06.716Z,18.13
2017-10-26T16:41:33.076Z,17.37
2017-10-26T16:43:59.448Z,17.33
2017-10-26T16:46:26.600Z,17.70
2017-10-26T16:48:53.789Z,17.33
2017-10-26T16:51:20.187Z,16.47
2017-10-26T16:53:48.246Z,18.00
2017-10-26T16:56:14.929Z,16.97
2017-10-26T16:58:41.456Z,17.87
2017-10-26T17:01:07.913Z,15.97
2017-10-26T17:03:34.341Z,16.43
2017-10-26T17:06:00.723Z,16.70
2017-10-26T17:08:27.091Z,15.37
2017-10-26T17:10:53.539Z,16.30
2017-10-26T17:13:19.917Z,17.23
2017-10-26T17:15:46.377Z,15.17
2017-10-26T17:18:12.894Z,17.00
2017-10-26T17:20:40.174Z,16.30
2017-10-26T17:23:06.544Z,15.97
2017-10-26T17:25:33.075Z,15.73
2017-10-26T17:27:59.514Z,16.07
2017-10-26T17:30:25.864Z,15.80
2017-10-26T17:32:52.430Z,15.70
2017-10-26T17:35:19.581Z,19.70
2017-10-26T17:37:46.812Z,15.20
2017-10-26T17:40:13.177Z,14.83
2017-10-26T17:42:39.722Z,14.03
2017-10-26T17:45:06.274Z,14.97
2017-10-26T17:47:32.751Z,14.57
2017-10-26T17:49:59.151Z,15.20
2017-10-26T17:52:25.551Z,13.20
2017-10-26T17:54:52.054Z,13.13
2017-10-26T17:57:20.392Z,12.70
2017-10-26T17:59:47.057Z,13.40
2017-10-26T18:02:13.567Z,12.93
2017-10-26T18:04:39.981Z,13.90
2017-10-26T18:07:06.404Z,13.97
2017-10-26T18:09:33.690Z,13.10
2017-10-26T18:12:00.018Z,13.70
2017-10-26T18:14:26.499Z,13.70
2017-10-26T18:16:53.660Z,13.83
2017-10-26T18:19:20.739Z,12.90
2017-10-26T18:21:47.194Z,14.90
2017-10-26T18:24:13.588Z,13.20
2017-10-26T18:26:39.951Z,13.70
2017-10-26T18:29:06.399Z,13.43
2017-10-26T18:31:33.957Z,14.83
2017-10-26T18:34:00.329Z,13.10
2017-10-26T18:36:27.551Z,13.87
2017-10-26T18:38:54.026Z,13.67
2017-10-26T18:41:20.398Z,14.87
2017-10-26T18:43:46.867Z,15.20
2017-10-26T18:46:13.261Z,13.20
2017-10-26T18:48:39.685Z,13.63
2017-10-26T18:51:06.060Z,13.13
2017-10-26T18:53:32.539Z,13.17
2017-10-26T18:56:00.088Z,12.30
2017-10-26T18:58:26.617Z,13.40
2017-10-26T19:00:55.912Z,11.93
2017-10-26T19:03:23.014Z,12.90
2017-10-26T19:05:49.444Z,11.93
2017-10-26T19:08:15.841Z,11.47
2017-10-26T19:10:42.208Z,11.87
2017-10-26T19:13:08.804Z,10.77
2017-10-26T19:15:36.087Z,12.60
2017-10-26T19:18:02.528Z,11.00
2017-10-26T19:20:28.939Z,11.03
2017-10-26T19:22:56.253Z,12.50
2017-10-26T19:25:22.859Z,10.47
2017-10-26T19:27:49.905Z,11.07
2017-10-26T19:30:16.254Z,10.50
2017-10-26T19:32:42.690Z,11.40
2017-10-26T19:35:09.196Z,11.57
2017-10-26T19:37:35.684Z,10.50
2017-10-26T19:40:02.828Z,10.43
2017-10-26T19:42:29.221Z,10.10
2017-10-26T19:44:55.579Z,10.80
2017-10-26T19:47:22.027Z,10.50
2017-10-26T19:49:48.455Z,10.67
2017-10-26T19:52:14.940Z,11.90
2017-10-26T19:54:42.447Z,11.53
2017-10-26T19:57:08.836Z,11.20
2017-10-26T19:59:35.630Z,11.40
2017-10-26T20:02:01.978Z,11.03
2017-10-26T20:04:28.313Z,10.60
2017-10-26T20:06:55.477Z,10.67
2017-10-26T20:09:22.487Z,9.20
2017-10-26T20:11:48.837Z,10.23
2017-10-26T20:14:15.256Z,8.80
2017-10-26T20:16:41.627Z,10.53
2017-10-26T20:19:08.227Z,11.20
2017-10-26T20:21:34.649Z,9.97
2017-10-26T20:24:01.128Z,9.20
2017-10-26T20:26:27.511Z,9.70
2017-10-26T20:28:53.954Z,9.90
2017-10-26T20:31:20.342Z,9.00
2017-10-26T20:33:46.900Z,10.17
2017-10-26T20:36:14.282Z,8.43
2017-10-26T20:38:41.604Z,8.90
2017-10-26T20:41:08.518Z,10.70
2017-10-26T20:43:35.156Z,9.73
2017-10-26T20:46:01.603Z,9.50
2017-10-26T20:48:28.099Z,9.50
2017-10-26T20:51:01.397Z,8.67
2017-10-26T20:53:35.578Z,8.67
2017-10-26T20:56:08.250Z,7.17
2017-10-26T20:58:40.759Z,8.53
2017-10-26T21:01:13.681Z,8.50
2017-10-26T21:03:46.379Z,7.53
2017-10-26T21:06:15.773Z,8.20
2017-10-26T21:08:48.470Z,7.80
2017-10-26T21:14:27.794Z,7.17
2017-10-26T21:16:54.123Z,6.97
2017-10-26T21:19:20.466Z,7.20
2017-10-26T21:21:46.871Z,7.50
2017-10-26T21:24:14.078Z,7.20
2017-10-26T21:26:40.526Z,7.60
2017-10-26T21:29:06.922Z,7.90
2017-10-26T21:31:33.310Z,7.80
2017-10-26T21:33:59.925Z,7.10
2017-10-26T21:36:26.963Z,8.20
2017-10-26T21:38:53.394Z,6.83
2017-10-26T21:41:19.937Z,7.07
2017-10-26T21:43:46.440Z,8.30
2017-10-26T21:46:13.240Z,7.33
2017-10-26T21:48:39.671Z,8.07
2017-10-26T21:51:06.359Z,8.33
2017-10-26T21:53:33.091Z,9.87
2017-10-26T21:55:59.481Z,9.60
2017-10-26T21:58:25.926Z,7.83
2017-10-26T22:00:52.475Z,8.50
2017-10-26T22:03:18.990Z,8.50
2017-10-26T22:05:45.398Z,8.87
2017-10-26T22:08:11.762Z,7.77
2017-10-26T22:13:11.751Z,9.27
2017-10-26T22:15:38.119Z,9.57
2017-10-26T22:18:04.431Z,9.47
2017-10-26T22:20:30.784Z,8.90
2017-10-26T22:22:57.173Z,9.50
2017-10-26T22:25:23.527Z,9.57
2017-10-26T22:27:49.960Z,10.30
2017-10-26T22:30:16.554Z,10.20
2017-10-26T22:32:42.991Z,9.93
2017-10-26T22:35:09.484Z,9.97
2017-10-26T22:37:35.926Z,10.00
2017-10-26T22:40:02.412Z,9.53
2017-10-26T22:42:29.082Z,9.90
2017-10-26T22:44:55.623Z,10.53
2017-10-26T22:47:22.024Z,10.37
2017-10-26T22:49:48.752Z,9.23
2017-10-26T22:52:15.336Z,9.80
2017-10-26T22:54:41.900Z,9.33
2017-10-26T22:57:08.243Z,10.53
2017-10-26T22:59:35.701Z,9.00
2017-10-26T23:02:02.251Z,10.10
2017-10-26T23:04:28.618Z,10.23
2017-10-26T23:06:55.022Z,9.73
2017-10-26T23:09:21.449Z,9.40
2017-10-26T23:11:47.887Z,11.20
2017-10-26T23:14:14.353Z,10.90
2017-10-26T23:16:40.762Z,11.13
2017-10-26T23:19:07.371Z,10.80
2017-10-26T23:21:33.959Z,10.03
2017-10-26T23:24:00.454Z,10.53
2017-10-26T23:26:26.853Z,10.40
2017-10-26T23:28:53.232Z,10.50
2017-10-26T23:31:19.587Z,11.57
2017-10-26T23:33:46.046Z,10.93
2017-10-26T23:36:12.386Z,10.80
2017-10-26T23:38:38.819Z,11.60
2017-10-26T23:41:06.247Z,11.40
2017-10-26T23:43:32.946Z,10.90
2017-10-26T23:45:59.783Z,11.87
2017-10-26T23:48:26.960Z,12.13
2017-10-26T23:50:53.406Z,11.20
2017-10-26T23:53:19.812Z,12.37
2017-10-26T23:55:46.148Z,12.07
2017-10-26T23:58:12.482Z,11.37
